Time;durP1;ratioP1;P1;durP2;ratioP2;P2;SDS_P1;SDS_P2;PMS_P1;PMS_P2;Temp;Humidity;BMP_temperature;BMP_pressure;BME280_temperature;BME280_humidity;BME280_pressure;Samples;Min_cycle;Max_cycle;Signal;HPM_P1;HPM_P2
2022/05/30 00:01:09;;;;;;;2.38;0.88;;;;;;;10.13;69.91;99826.28;5052864;28;20470;-76
2022/05/30 00:03:35;;;;;;;2.13;0.80;;;;;;;10.12;68.49;99821.13;5052759;28;20032;-76
2022/05/30 00:06:00;;;;;;;3.75;1.02;;;;;;;10.10;69.21;99822.16;5052497;28;20040;-76
2022/05/30 00:08:25;;;;;;;2.03;0.87;;;;;;;9.97;70.14;99821.41;5053107;28;20486;-76
2022/05/30 00:10:51;;;;;;;1.90;0.97;;;;;;;9.91;69.72;99820.41;5052835;28;20044;-76
2022/05/30 00:13:16;;;;;;;2.63;0.70;;;;;;;9.85;69.95;99813.22;5052974;28;20259;-77
2022/05/30 00:15:42;;;;;;;6.82;0.95;;;;;;;9.85;69.62;99807.84;5052604;28;20394;-77
2022/05/30 00:18:09;;;;;;;3.10;0.80;;;;;;;9.93;69.95;99810.25;5052459;28;20060;-76
2022/05/30 00:20:36;;;;;;;1.73;0.75;;;;;;;9.93;70.13;99814.81;5051292;28;20029;-77
2022/05/30 00:23:01;;;;;;;2.47;0.90;;;;;;;10.08;70.21;99807.25;5053326;28;20119;-77
2022/05/30 00:25:26;;;;;;;3.77;0.73;;;;;;;10.03;69.51;99799.81;5052973;28;20428;-76
2022/05/30 00:27:51;;;;;;;4.10;0.85;;;;;;;10.07;69.45;99801.06;5053205;28;20033;-76
2022/05/30 00:30:17;;;;;;;3.53;0.73;;;;;;;9.95;69.30;99800.09;5053161;28;20091;-76
2022/05/30 00:32:43;;;;;;;5.68;1.00;;;;;;;9.81;69.31;99811.16;5053234;28;20049;-76
2022/05/30 00:35:09;;;;;;;1.95;0.80;;;;;;;9.80;69.61;99809.50;5072428;28;20475;-77
2022/05/30 00:37:35;;;;;;;4.15;0.90;;;;;;;9.74;69.83;99797.72;5072910;28;20072;-77
2022/05/30 00:40:00;;;;;;;6.03;0.87;;;;;;;9.70;70.13;99802.69;5072801;28;20401;-77
2022/05/30 00:42:26;;;;;;;4.23;0.97;;;;;;;9.75;70.25;99802.91;5054598;28;20029;-76
2022/05/30 00:44:53;;;;;;;3.75;0.65;;;;;;;9.66;69.40;99808.75;5072596;28;20430;-77
2022/05/30 00:47:20;;;;;;;1.75;0.70;;;;;;;9.67;69.47;99810.41;5072569;28;20032;-76
2022/05/30 00:49:48;;;;;;;3.22;0.73;;;;;;;9.73;69.53;99804.16;5072294;28;20039;-77
2022/05/30 00:52:20;;;;;;;6.05;0.80;;;;;;;9.71;69.06;99803.53;5071108;28;20036;-77
2022/05/30 00:54:51;;;;;;;3.05;1.13;;;;;;;9.71;70.02;99792.78;5072610;28;20106;-76
2022/05/30 00:57:20;;;;;;;4.20;0.82;;;;;;;9.67;69.13;99796.94;5073873;28;20108;-77
2022/05/30 00:59:53;;;;;;;1.65;0.50;;;;;;;9.58;69.61;99793.66;5075847;28;20399;-76
2022/05/30 01:02:21;;;;;;;3.13;0.95;;;;;;;9.54;69.45;99787.06;5076133;28;20070;-77
2022/05/30 01:07:32;;;;;;;5.43;0.63;;;;;;;9.71;69.92;99790.91;5075990;28;20036;-77
2022/05/30 01:09:59;;;;;;;1.75;0.60;;;;;;;9.74;69.25;99786.97;5076043;28;20021;-76
2022/05/30 01:12:39;;;;;;;2.15;0.75;;;;;;;9.78;69.03;99790.88;5075847;28;20471;-77
2022/05/30 01:15:07;;;;;;;2.33;0.60;;;;;;;9.80;68.43;99787.97;5075987;28;20035;-77
2022/05/30 01:17:33;;;;;;;1.95;0.95;;;;;;;9.89;69.13;99786.66;5075646;28;20495;-76
2022/05/30 01:20:11;;;;;;;3.35;1.25;;;;;;;10.03;68.46;99786.38;5075579;28;20054;-76
2022/05/30 01:22:50;;;;;;;1.95;0.75;;;;;;;9.87;69.67;99791.44;5075347;28;20032;-77
2022/05/30 01:25:57;;;;;;;2.08;0.70;;;;;;;10.03;69.65;99790.97;5075704;28;20085;-76
2022/05/30 01:28:29;;;;;;;4.43;0.82;;;;;;;9.92;70.44;99781.69;5071348;28;20068;-76
2022/05/30 01:30:54;;;;;;;4.90;1.40;;;;;;;9.90;70.06;99789.16;5075158;28;20071;-76
2022/05/30 01:33:19;;;;;;;3.50;0.90;;;;;;;9.87;70.44;99789.56;5075231;28;20076;-77
2022/05/30 01:35:45;;;;;;;6.57;1.07;;;;;;;9.90;70.31;99780.25;5075217;28;20029;-77
2022/05/30 01:38:10;;;;;;;3.17;0.80;;;;;;;9.87;71.33;99781.50;5075231;28;20259;-76
2022/05/30 01:40:35;;;;;;;3.53;0.87;;;;;;;9.78;71.94;99782.81;5075284;28;20119;-77
2022/05/30 01:43:01;;;;;;;4.20;1.00;;;;;;;9.73;71.84;99777.25;5075437;28;20162;-77
2022/05/30 01:45:27;;;;;;;3.63;1.27;;;;;;;9.64;72.63;99786.63;5075161;28;20116;-77
2022/05/30 01:47:53;;;;;;;3.97;1.00;;;;;;;9.53;73.27;99779.19;5075240;28;20046;-77
2022/05/30 01:50:21;;;;;;;3.33;1.20;;;;;;;9.58;72.73;99776.69;5074955;28;20526;-77
2022/05/30 01:52:46;;;;;;;5.20;1.35;;;;;;;9.46;74.11;99775.72;5074886;28;20166;-76
2022/05/30 01:55:11;;;;;;;4.57;1.17;;;;;;;9.54;73.77;99773.59;5074835;28;20120;-77
2022/05/30 01:57:37;;;;;;;3.78;1.40;;;;;;;9.63;73.60;99768.81;5074824;28;20036;-77
2022/05/30 02:00:04;;;;;;;;;;;;;;;9.42;73.90;99769.13;5057411;28;20031;-76
2022/05/30 02:02:29;;;;;;;5.10;1.02;;;;;;;9.35;74.69;99775.34;5074894;28;19912;-76
2022/05/30 02:04:56;;;;;;;2.90;0.97;;;;;;;9.45;73.98;99774.91;5056997;28;20032;-76
2022/05/30 02:07:21;;;;;;;6.15;1.08;;;;;;;9.23;75.05;99765.47;5074921;28;20028;-77
2022/05/30 02:09:46;;;;;;;1.93;0.90;;;;;;;9.15;75.91;99769.19;5073749;28;20490;-76
2022/05/30 02:12:12;;;;;;;4.20;1.47;;;;;;;9.12;75.96;99777.72;5074782;28;20035;-76
2022/05/30 02:14:37;;;;;;;2.77;0.90;;;;;;;9.26;75.75;99768.56;5074445;28;20479;-76
2022/05/30 02:17:06;;;;;;;4.80;0.90;;;;;;;9.47;75.18;99770.16;5074734;28;20271;-76
2022/05/30 02:19:37;;;;;;;5.35;1.30;;;;;;;9.45;75.07;99768.69;5074292;28;20028;-76
2022/05/30 02:22:04;;;;;;;3.45;1.15;;;;;;;9.59;74.89;99770.28;5074679;28;20112;-76
2022/05/30 02:24:29;;;;;;;4.05;1.38;;;;;;;9.60;74.18;99770.06;5074793;28;20094;-76
2022/05/30 02:26:54;;;;;;;2.43;0.90;;;;;;;9.61;73.42;99773.59;5074355;28;20025;-77
2022/05/30 02:29:20;;;;;;;5.17;1.43;;;;;;;9.27;73.79;99777.47;5074633;28;20032;-76
2022/05/30 02:31:45;;;;;;;3.92;1.20;;;;;;;9.35;74.16;99764.59;5074082;28;20021;-76
2022/05/30 02:36:56;;;;;;;4.20;1.00;;;;;;;9.21;73.02;99768.38;5074296;28;20334;-76
2022/05/30 02:39:24;;;;;;;2.78;0.82;;;;;;;9.37;73.04;99762.50;5074332;28;20032;-76
2022/05/30 02:41:50;;;;;;;2.42;0.98;;;;;;;9.33;73.10;99760.47;5056100;28;20102;-76
2022/05/30 02:44:19;;;;;;;3.03;1.15;;;;;;;9.33;72.86;99763.16;5073777;28;20033;-76
2022/05/30 02:46:48;;;;;;;3.33;1.20;;;;;;;9.18;73.50;99763.41;5074204;28;20111;-76
2022/05/30 02:49:14;;;;;;;3.75;1.10;;;;;;;9.16;72.69;99770.03;5074052;28;20028;-77
2022/05/30 02:51:39;;;;;;;3.00;0.83;;;;;;;9.20;72.94;99766.72;5073781;28;20086;-76
2022/05/30 02:54:05;;;;;;;2.70;1.33;;;;;;;9.13;72.47;99768.63;5073642;28;20286;-76
2022/05/30 02:56:30;;;;;;;3.03;1.00;;;;;;;9.08;73.05;99773.78;5073883;28;20107;-76
2022/05/30 02:59:00;;;;;;;3.00;0.80;;;;;;;9.14;72.53;99766.72;5073857;28;20028;-76
2022/05/30 03:01:26;;;;;;;5.20;1.17;;;;;;;9.20;73.50;99769.41;5073418;28;20071;-76
2022/05/30 03:03:52;;;;;;;2.15;1.00;;;;;;;9.15;73.52;99768.38;5073432;28;20060;-76
2022/05/30 03:06:18;;;;;;;4.53;1.10;;;;;;;9.07;73.88;99765.94;5074011;28;20123;-76
2022/05/30 03:08:43;;;;;;;6.05;0.88;;;;;;;9.04;74.02;99773.38;5073425;28;20107;-76
2022/05/30 03:11:10;;;;;;;3.65;0.95;;;;;;;9.18;74.10;99773.34;5072247;28;20115;-76
2022/05/30 03:13:35;;;;;;;2.67;0.93;;;;;;;8.97;74.56;99775.25;5073376;28;20116;-76
2022/05/30 03:16:01;;;;;;;4.95;1.00;;;;;;;8.97;73.86;99769.03;5073374;28;20190;-76
2022/05/30 03:18:26;;;;;;;3.38;1.17;;;;;;;9.04;74.21;99778.75;5073584;28;20081;-76
2022/05/30 03:20:52;;;;;;;4.85;1.02;;;;;;;9.01;74.84;99775.66;5073156;28;20535;-76
2022/05/30 03:23:17;;;;;;;2.10;0.80;;;;;;;8.98;75.04;99773.38;5073427;28;20032;-76
2022/05/30 03:25:43;;;;;;;3.77;0.80;;;;;;;8.94;74.77;99777.56;5073312;28;20060;-76
2022/05/30 03:28:08;;;;;;;3.70;1.03;;;;;;;8.96;74.82;99775.44;5073108;28;20297;-76
2022/05/30 03:30:37;;;;;;;3.83;0.70;;;;;;;8.81;75.11;99772.19;5055370;28;20083;-76
2022/05/30 03:33:06;;;;;;;4.13;1.20;;;;;;;8.81;75.57;99778.38;5073099;28;20024;-76
2022/05/30 03:35:33;;;;;;;6.30;2.10;;;;;;;8.87;75.67;99777.56;5073231;28;20044;-76
2022/05/30 03:37:58;;;;;;;;;;;;;;;9.03;75.64;99784.34;5073440;28;20331;-76
2022/05/30 03:40:25;;;;;;;5.97;1.92;;;;;;;8.86;76.05;99781.28;5073192;28;19908;-76
2022/05/30 03:42:50;;;;;;;6.20;1.38;;;;;;;9.11;75.67;99780.59;5072759;28;20033;-76
2022/05/30 03:45:15;;;;;;;4.00;1.53;;;;;;;9.10;75.05;99778.97;5055207;28;20058;-76
2022/05/30 03:47:43;;;;;;;2.53;0.80;;;;;;;9.30;74.38;99785.94;5073105;28;20546;-76
2022/05/30 03:50:13;;;;;;;4.28;0.98;;;;;;;9.14;74.86;99780.16;5071889;28;20023;-77
2022/05/30 03:52:38;;;;;;;4.82;0.90;;;;;;;9.01;75.28;99789.09;5073253;28;20471;-76
2022/05/30 03:55:05;;;;;;;3.50;1.30;;;;;;;9.01;75.16;99791.78;5072780;28;20024;-76
2022/05/30 03:57:31;;;;;;;7.22;1.50;;;;;;;9.00;75.77;99782.88;5072632;28;20128;-76
2022/05/30 03:59:56;;;;;;;3.17;1.03;;;;;;;9.06;75.98;99789.28;5072714;28;20074;-76
2022/05/30 04:02:21;;;;;;;3.10;1.07;;;;;;;9.05;75.73;99785.78;5072905;28;20021;-76
2022/05/30 04:04:47;;;;;;;2.67;1.33;;;;;;;9.04;76.07;99786.00;5072697;28;20082;-76
2022/05/30 04:07:12;;;;;;;2.30;0.80;;;;;;;9.17;74.99;99788.63;5072608;28;20024;-76
2022/05/30 04:09:37;;;;;;;4.70;1.10;;;;;;;9.23;75.33;99793.19;5073245;28;20361;-76
2022/05/30 04:12:03;;;;;;;7.77;1.30;;;;;;;9.24;75.06;99788.63;5072567;28;20111;-76
2022/05/30 04:14:28;;;;;;;5.60;1.40;;;;;;;9.21;75.29;99783.66;5072672;28;20052;-76
2022/05/30 04:16:53;;;;;;;2.43;0.80;;;;;;;9.14;74.69;99785.53;5072626;28;20388;-76
2022/05/30 04:19:19;;;;;;;2.50;0.70;;;;;;;9.05;75.27;99784.97;5072750;28;20029;-76
2022/05/30 04:21:44;;;;;;;2.83;1.00;;;;;;;8.89;75.52;99788.91;5072449;28;20028;-76
2022/05/30 04:24:09;;;;;;;4.53;1.30;;;;;;;8.97;75.31;99788.69;5072441;28;20064;-76
2022/05/30 04:26:34;;;;;;;4.63;1.23;;;;;;;9.01;75.26;99786.41;5072704;28;20035;-76
2022/05/30 04:29:00;;;;;;;4.60;0.83;;;;;;;9.07;75.03;99784.75;5072496;28;20032;-76
2022/05/30 04:31:25;;;;;;;6.13;1.10;;;;;;;9.02;75.27;99788.06;5072615;28;20107;-76
2022/05/30 04:33:51;;;;;;;4.30;1.10;;;;;;;8.88;75.84;99791.81;5058367;28;20378;-77
2022/05/30 04:36:16;;;;;;;4.95;1.60;;;;;;;8.92;76.43;99795.75;5058482;28;20379;-76
2022/05/30 04:38:42;;;;;;;3.60;1.13;;;;;;;8.86;75.88;99792.03;5058446;28;20079;-76
2022/05/30 04:41:07;;;;;;;4.20;1.63;;;;;;;8.90;75.61;99795.13;5076361;28;20027;-76
2022/05/30 04:43:33;;;;;;;4.10;1.10;;;;;;;8.95;75.86;99798.00;5076558;28;20028;-77
2022/05/30 04:46:12;;;;;;;4.63;1.15;;;;;;;8.95;74.99;99798.84;5076376;28;20117;-77
2022/05/30 04:48:38;;;;;;;3.03;1.35;;;;;;;8.88;75.60;99805.25;5058167;28;20100;-77
2022/05/30 04:51:03;;;;;;;4.72;1.42;;;;;;;8.88;75.40;99807.94;5076326;28;20032;-76
2022/05/30 04:53:30;;;;;;;5.72;1.08;;;;;;;8.96;74.53;99805.00;5076367;28;20047;-76
2022/05/30 04:55:55;;;;;;;4.13;1.02;;;;;;;9.06;74.33;99805.41;5078890;28;20387;-76
2022/05/30 04:58:21;;;;;;;5.30;1.20;;;;;;;9.32;74.94;99812.56;5077053;28;20045;-76
2022/05/30 05:00:46;;;;;;;3.17;0.90;;;;;;;9.56;73.94;99809.19;5076213;28;20028;-76
2022/05/30 05:03:11;;;;;;;3.90;0.90;;;;;;;9.59;73.28;99806.06;5076628;28;20039;-77
2022/05/30 05:39:56;;;;;;;4.30;1.58;;;;;;;9.80;70.26;99826.47;5052208;28;20360;-76
2022/05/30 05:45:43;;;;;;;1.70;0.73;;;;;;;9.84;70.76;99826.88;5055399;28;20044;-77
2022/05/30 05:48:10;;;;;;;3.70;1.08;;;;;;;9.68;71.40;99833.53;5056276;28;20028;-76
2022/05/30 05:50:43;;;;;;;4.90;1.00;;;;;;;9.78;71.47;99831.25;5055979;28;20063;-77
2022/05/30 05:53:10;;;;;;;2.85;0.90;;;;;;;10.03;71.77;99836.72;5056644;28;20029;-76
2022/05/30 05:55:37;;;;;;;4.18;1.55;;;;;;;9.93;71.41;99831.78;5055691;28;20029;-77
2022/05/30 05:58:03;;;;;;;4.60;1.45;;;;;;;9.82;71.45;99845.94;5058133;28;20025;-77
2022/05/30 06:00:31;;;;;;;6.10;1.65;;;;;;;9.86;71.21;99836.34;5056290;28;20120;-77
2022/05/30 06:02:57;;;;;;;7.05;1.30;;;;;;;9.83;71.59;99842.19;5056320;28;20033;-77
2022/05/30 06:05:22;;;;;;;8.98;2.17;;;;;;;9.77;71.77;99837.66;5055761;28;20025;-77
2022/05/30 06:08:25;;;;;;;2.58;1.00;;;;;;;9.87;72.56;99838.00;5055286;28;20033;-78
2022/05/30 06:11:08;;;;;;;5.22;1.50;;;;;;;9.99;71.34;99841.69;5055469;28;20020;-77
2022/05/30 06:13:41;;;;;;;4.80;1.25;;;;;;;10.03;71.08;99837.50;5055891;28;20507;-77
2022/05/30 06:16:09;;;;;;;3.63;1.20;;;;;;;10.01;71.61;99845.00;5055047;28;20028;-77
2022/05/30 06:18:35;;;;;;;4.85;1.17;;;;;;;10.07;71.44;99837.91;5054297;28;20390;-77
2022/05/30 06:21:01;;;;;;;3.10;1.15;;;;;;;10.12;71.56;99845.34;5055805;28;20124;-77
2022/05/30 06:23:26;;;;;;;3.75;1.20;;;;;;;10.16;70.84;99846.56;5055863;28;20039;-78
2022/05/30 06:25:52;;;;;;;3.53;1.45;;;;;;;10.28;71.49;99850.25;5055792;28;20025;-78
2022/05/30 06:28:18;;;;;;;6.18;1.65;;;;;;;10.20;69.87;99854.03;5056873;28;20040;-77
2022/05/30 06:30:44;;;;;;;7.72;1.63;;;;;;;10.30;69.86;99845.47;5055266;28;20082;-77
2022/05/30 06:33:09;;;;;;;3.40;1.25;;;;;;;10.49;69.96;99841.00;5056168;28;20039;-77
2022/05/30 06:35:40;;;;;;;3.40;1.10;;;;;;;10.23;69.40;99840.13;5055351;28;20091;-77
2022/05/30 06:38:08;;;;;;;4.28;1.25;;;;;;;10.49;68.69;99841.00;5055180;28;20456;-77
2022/05/30 06:40:33;;;;;;;3.60;1.10;;;;;;;10.73;67.00;99837.50;5060261;28;20048;-77
2022/05/30 06:42:59;;;;;;;2.78;1.08;;;;;;;10.94;66.44;99841.66;5074941;28;20031;-77
2022/05/30 06:45:24;;;;;;;6.22;1.00;;;;;;;11.25;66.61;99846.97;5074177;28;20554;-77
2022/05/30 06:47:52;;;;;;;3.45;0.93;;;;;;;11.26;65.63;99842.41;5074737;28;20410;-77
2022/05/30 06:50:18;;;;;;;4.47;1.10;;;;;;;11.47;64.68;99850.03;5074354;28;20400;-77
2022/05/30 06:52:44;;;;;;;6.28;1.23;;;;;;;11.36;64.85;99853.47;5074146;28;20028;-77
2022/05/30 06:55:31;;;;;;;4.93;1.55;;;;;;;11.35;62.95;99857.22;5075105;28;20104;-78
2022/05/30 06:58:14;;;;;;;4.90;1.30;;;;;;;11.16;64.10;99863.63;5075547;28;20043;-77
2022/05/30 07:00:41;;;;;;;3.10;1.15;;;;;;;11.16;62.15;99863.63;5057904;28;20313;-77
2022/05/30 07:03:06;;;;;;;2.95;1.13;;;;;;;11.20;63.63;99862.16;5075062;28;20432;-77
2022/05/30 07:05:31;;;;;;;6.57;1.37;;;;;;;11.12;65.28;99863.25;5075010;28;20109;-77
2022/05/30 07:07:58;;;;;;;4.07;1.53;;;;;;;11.22;63.97;99860.88;5075544;28;20289;-77
2022/05/30 07:10:26;;;;;;;6.90;1.48;;;;;;;11.40;64.04;99866.31;5076352;28;20104;-78
2022/05/30 07:12:52;;;;;;;6.57;1.42;;;;;;;11.63;61.89;99876.44;5075825;28;20046;-78
2022/05/30 07:15:18;;;;;;;5.65;1.45;;;;;;;11.36;62.19;99870.50;5075472;28;20025;-78
2022/05/30 07:17:43;;;;;;;6.38;1.85;;;;;;;11.46;61.66;99868.09;5074886;28;20037;-77
2022/05/30 07:20:09;;;;;;;6.18;1.63;;;;;;;11.61;62.90;99875.00;5057637;28;20478;-77
2022/05/30 07:22:34;;;;;;;;;;;;;;;11.73;63.30;99875.91;5075934;28;20067;-77
2022/05/30 07:25:00;;;;;;;5.13;1.80;;;;;;;11.60;62.53;99870.66;5057887;28;19913;-78
2022/05/30 07:27:25;;;;;;;4.70;1.53;;;;;;;11.67;61.77;99874.91;5075904;28;20259;-77
2022/05/30 07:29:50;;;;;;;4.88;1.92;;;;;;;11.68;61.32;99876.56;5075538;28;20044;-77
2022/05/30 07:32:17;;;;;;;5.72;1.83;;;;;;;11.63;61.84;99876.44;5075179;28;20383;-77
2022/05/30 07:34:43;;;;;;;6.00;1.55;;;;;;;11.49;60.89;99875.75;5074427;28;20032;-77
2022/05/30 07:37:08;;;;;;;;;;;;;;;11.58;61.38;99872.75;5075485;28;20082;-77
2022/05/30 07:39:38;;;;;;;4.22;1.63;;;;;;;11.60;61.25;99870.66;5073123;28;19920;-77
2022/05/30 07:42:04;;;;;;;5.20;1.60;;;;;;;11.62;61.52;99872.09;5074497;28;20059;-76
2022/05/30 07:44:30;;;;;;;;;;;;;;;11.90;59.54;99876.97;5074626;28;20029;-77
2022/05/30 07:46:56;;;;;;;5.27;1.20;;;;;;;12.09;58.74;99875.06;5074082;28;19916;-76
2022/05/30 07:49:21;;;;;;;4.38;1.15;;;;;;;12.26;59.50;99867.16;5074491;28;20082;-76
2022/05/30 07:51:46;;;;;;;3.80;1.00;;;;;;;12.42;58.51;99871.91;5074062;28;20040;-76
2022/05/30 07:54:12;;;;;;;2.35;1.10;;;;;;;12.55;58.58;99873.56;5073875;28;20032;-76
2022/05/30 07:57:12;;;;;;;1.60;0.70;;;;;;;12.53;56.65;99876.53;5074422;28;20090;-76
2022/05/30 07:59:38;;;;;;;6.25;1.38;;;;;;;12.42;55.73;99866.50;5081849;28;20258;-76
2022/05/30 08:02:04;;;;;;;3.33;0.93;;;;;;;12.39;55.86;99873.19;5094373;28;20027;-75
2022/05/30 08:04:29;;;;;;;;;;;;;;;12.25;55.90;99873.59;5094676;28;20731;-75
2022/05/30 08:06:54;;;;;;;3.67;1.00;;;;;;;11.93;56.63;99873.00;5093946;28;19908;-74
2022/05/30 08:09:20;;;;;;;6.50;0.75;;;;;;;12.18;57.63;99868.31;5097765;28;20032;-74
2022/05/30 08:11:45;;;;;;;10.93;3.78;;;;;;;12.51;56.70;99878.63;5097296;28;20036;-75
2022/05/30 08:14:11;;;;;;;2.30;1.03;;;;;;;12.66;55.43;99873.63;5075320;28;20116;-75
2022/05/30 08:16:37;;;;;;;4.40;1.05;;;;;;;12.86;56.57;99870.59;5093438;28;20028;-75
2022/05/30 08:19:06;;;;;;;;;;;;;;;12.81;54.65;99867.75;5093510;28;20028;-75
2022/05/30 08:21:32;;;;;;;1.98;0.80;;;;;;;12.73;54.77;99868.91;5075714;28;19915;-76
2022/05/30 08:23:57;;;;;;;4.18;0.70;;;;;;;12.32;55.41;99867.06;5093944;28;20119;-76
2022/05/30 08:26:23;;;;;;;2.88;0.50;;;;;;;12.32;54.85;99872.47;5093418;28;20027;-76
2022/05/30 08:28:48;;;;;;;5.80;0.83;;;;;;;12.37;54.16;99871.75;5074582;28;20032;-76
2022/05/30 08:31:15;;;;;;;2.93;0.70;;;;;;;12.39;54.26;99865.06;5093252;28;20103;-77
2022/05/30 08:33:41;;;;;;;2.80;0.43;;;;;;;12.57;54.21;99869.59;5093073;28;20024;-76
2022/05/30 08:36:08;;;;;;;3.40;0.77;;;;;;;12.47;54.11;99872.03;5094160;28;20031;-76
2022/05/30 08:38:37;;;;;;;3.72;0.65;;;;;;;12.48;54.54;99870.97;5093336;28;20055;-76
2022/05/30 08:43:57;;;;;;;3.78;1.17;;;;;;;12.85;55.84;99866.25;5093429;28;20039;-76
2022/05/30 08:46:37;;;;;;;3.88;0.73;;;;;;;12.42;52.91;99874.59;5093136;28;20135;-76
2022/05/30 08:49:28;;;;;;;1.92;0.73;;;;;;;12.90;53.07;99876.38;5075311;28;20031;-76
2022/05/30 08:52:19;;;;;;;2.28;0.55;;;;;;;12.55;52.88;99874.41;5093376;28;20111;-76
2022/05/30 08:54:58;;;;;;;2.25;0.70;;;;;;;12.93;52.30;99876.72;5094015;28;20035;-76
2022/05/30 08:57:54;;;;;;;2.25;0.45;;;;;;;12.75;52.68;99874.09;5093678;28;20104;-76
2022/05/30 09:00:28;;;;;;;2.80;0.93;;;;;;;12.73;53.06;99878.91;5093824;28;20084;-76
2022/05/30 09:03:05;;;;;;;1.55;0.50;;;;;;;13.12;52.39;99885.53;5093550;28;20077;-76
2022/05/30 09:05:49;;;;;;;1.70;0.60;;;;;;;12.44;51.71;99883.31;5092894;28;20024;-77
2022/05/30 09:08:38;;;;;;;3.20;0.85;;;;;;;12.40;53.04;99880.22;5094289;28;20028;-76
2022/05/30 09:11:09;;;;;;;2.20;0.50;;;;;;;12.84;52.14;99878.94;5095113;28;20034;-77
2022/05/30 09:13:42;;;;;;;2.20;0.60;;;;;;;13.18;51.15;99881.94;5096989;28;20124;-76
2022/05/30 09:16:27;;;;;;;2.22;0.57;;;;;;;13.23;49.78;99879.38;5098307;28;20031;-77
2022/05/30 09:18:54;;;;;;;1.25;0.60;;;;;;;13.33;48.49;99878.75;5101200;28;20572;-77
2022/05/30 09:21:21;;;;;;;1.25;0.50;;;;;;;13.39;47.50;99883.25;5105804;28;20032;-77
2022/05/30 09:23:47;;;;;;;1.52;0.80;;;;;;;13.06;48.16;99886.50;5106156;28;20028;-77
2022/05/30 09:26:26;;;;;;;1.25;0.40;;;;;;;12.76;48.45;99891.97;5104523;28;20058;-77
2022/05/30 09:28:53;;;;;;;1.33;0.68;;;;;;;12.77;48.53;99880.91;5104261;28;20032;-76
2022/05/30 09:31:36;;;;;;;1.15;0.50;;;;;;;12.77;47.48;99883.63;5104141;28;20092;-76
2022/05/30 09:34:47;;;;;;;3.03;0.60;;;;;;;13.10;47.23;99877.66;5084964;28;20043;-77
2022/05/30 09:37:25;;;;;;;2.33;0.70;;;;;;;13.46;47.20;99873.91;5089495;28;20059;-77
2022/05/30 09:39:50;;;;;;;5.72;1.02;;;;;;;13.48;48.26;99879.09;5097098;28;20031;-77
2022/05/30 09:42:35;;;;;;;2.33;0.68;;;;;;;13.37;47.37;99877.22;5096831;28;20100;-77
2022/05/30 09:45:13;;;;;;;2.40;0.60;;;;;;;13.54;48.35;99880.88;5096980;28;20035;-76
2022/05/30 09:48:02;;;;;;;1.83;0.98;;;;;;;13.79;46.44;99880.59;5097342;28;20027;-78
2022/05/30 09:50:27;;;;;;;2.03;0.70;;;;;;;13.79;45.89;99881.38;5079155;28;20027;-77
2022/05/30 09:52:53;;;;;;;3.88;0.90;;;;;;;13.67;48.26;99875.19;5096306;28;20335;-77
2022/05/30 09:55:34;;;;;;;;;;;;;;;13.84;49.16;99878.78;5078324;28;20035;-76
2022/05/30 09:58:00;;;;;;;4.22;1.40;;;;;;;14.13;49.03;99876.13;5077694;28;19908;-76
2022/05/30 10:00:54;;;;;;;4.35;1.05;;;;;;;14.22;48.71;99878.22;5095881;28;20174;-77
2022/05/30 10:03:31;;;;;;;3.92;1.10;;;;;;;13.65;50.07;99879.19;5096065;28;20058;-77
2022/05/30 10:06:16;;;;;;;3.05;1.00;;;;;;;13.74;49.36;99875.06;5095599;28;20028;-77
2022/05/30 10:08:43;;;;;;;2.38;1.23;;;;;;;13.68;48.18;99876.00;5096233;28;20032;-76
2022/05/30 10:11:09;;;;;;;5.10;1.40;;;;;;;13.64;47.56;99872.94;5095786;28;20315;-77
2022/05/30 10:13:41;;;;;;;5.68;1.40;;;;;;;13.40;47.96;99883.00;5077749;28;20343;-78
2022/05/30 10:16:14;;;;;;;3.50;1.27;;;;;;;13.09;48.80;99876.00;5094905;28;20028;-76
2022/05/30 10:18:55;;;;;;;2.97;0.85;;;;;;;13.17;49.10;99883.00;5095049;28;20028;-76
2022/05/30 10:28:16;;;;;;;3.22;1.10;;;;;;;13.06;47.10;99890.03;5095027;28;20138;-77
2022/05/30 10:31:02;;;;;;;2.15;0.88;;;;;;;13.16;44.41;99884.06;5093929;28;20063;-77
2022/05/30 10:33:50;;;;;;;3.80;1.10;;;;;;;13.11;46.90;99887.41;5036123;28;20043;-77
2022/05/30 10:36:21;;;;;;;5.20;1.10;;;;;;;13.35;45.14;99885.59;5093935;28;20119;-77
2022/05/30 10:38:52;;;;;;;1.95;0.82;;;;;;;13.31;41.60;99889.00;5094846;28;20028;-77
2022/05/30 10:41:36;;;;;;;3.00;0.73;;;;;;;13.48;41.60;99893.44;5076394;28;20347;-77
2022/05/30 10:44:16;;;;;;;3.50;0.80;;;;;;;13.44;42.28;99888.75;5095032;28;20090;-77
2022/05/30 10:47:02;;;;;;;2.60;1.10;;;;;;;13.55;43.51;99885.22;5094999;28;20131;-77
2022/05/30 10:49:33;;;;;;;3.42;0.85;;;;;;;13.89;44.21;99888.91;5094920;28;20028;-77
2022/05/30 10:52:24;;;;;;;2.13;0.98;;;;;;;14.00;45.11;99895.34;5076592;28;20024;-77
2022/05/30 10:55:02;;;;;;;2.45;0.82;;;;;;;13.95;43.66;99896.09;5094083;28;20587;-76
2022/05/30 10:57:47;;;;;;;2.58;1.00;;;;;;;14.06;45.01;99886.28;5094660;28;20024;-77
2022/05/30 11:00:28;;;;;;;1.70;0.70;;;;;;;14.38;42.92;99889.31;5076040;28;20051;-76
2022/05/30 11:03:06;;;;;;;3.28;1.58;;;;;;;14.40;43.66;99889.91;5094463;28;20032;-79
2022/05/30 11:05:51;;;;;;;3.42;1.27;;;;;;;13.96;41.58;99881.50;5093955;28;20564;-77
2022/05/30 11:08:27;;;;;;;2.70;1.55;;;;;;;14.09;44.51;99883.91;5094523;28;20146;-77
2022/05/30 11:11:01;;;;;;;;;;;;;;;14.02;40.45;99882.41;5094543;28;20038;-77
2022/05/30 11:13:43;;;;;;;4.70;1.27;;;;;;;14.07;42.67;99893.34;5093968;28;19908;-77
2022/05/30 11:16:17;;;;;;;3.50;1.20;;;;;;;14.05;41.70;99893.59;5094023;28;20485;-77
2022/05/30 11:18:54;;;;;;;5.22;0.95;;;;;;;13.94;41.17;99893.63;5076204;28;20043;-77
2022/05/30 11:21:20;;;;;;;3.70;1.00;;;;;;;13.64;42.93;99900.03;5094772;28;20035;-77
2022/05/30 11:23:46;;;;;;;2.60;0.82;;;;;;;13.61;45.61;99908.66;5093925;28;20482;-77
2022/05/30 11:26:38;;;;;;;3.63;1.15;;;;;;;13.63;46.79;99903.78;5094100;28;20027;-77
2022/05/30 11:29:34;;;;;;;2.63;0.80;;;;;;;13.52;47.16;99897.34;5094345;28;20439;-77
2022/05/30 11:32:06;;;;;;;3.38;1.10;;;;;;;13.43;47.26;99898.78;5094779;28;20119;-77
2022/05/30 11:34:31;;;;;;;2.78;0.75;;;;;;;13.50;49.06;99907.56;5094326;28;20024;-78
2022/05/30 11:37:24;;;;;;;3.03;1.00;;;;;;;13.47;47.39;99905.34;5076442;28;20054;-77
2022/05/30 11:40:19;;;;;;;3.47;0.90;;;;;;;13.38;47.36;99911.34;5093964;28;20059;-77
2022/05/30 11:42:50;;;;;;;3.08;1.00;;;;;;;13.25;46.87;99907.00;5075264;28;20066;-77
2022/05/30 11:45:41;;;;;;;3.50;1.00;;;;;;;13.24;47.27;99910.78;5094487;28;20043;-77
2022/05/30 11:48:21;;;;;;;2.58;0.85;;;;;;;13.28;47.67;99911.94;5093861;28;20073;-77
2022/05/30 11:51:16;;;;;;;3.25;0.98;;;;;;;13.46;47.16;99910.97;5094210;28;20035;-77
2022/05/30 11:53:52;;;;;;;2.08;0.90;;;;;;;13.68;47.25;99912.03;5075326;28;20032;-77
2022/05/30 11:56:42;;;;;;;3.58;1.13;;;;;;;13.80;44.81;99904.69;5094266;28;20051;-77
2022/05/30 11:59:35;;;;;;;2.60;1.13;;;;;;;14.27;45.24;99906.47;5075613;28;20024;-77
2022/05/30 12:02:09;;;;;;;2.80;0.95;;;;;;;14.37;43.90;99906.66;5094732;28;20028;-77
2022/05/30 12:04:52;;;;;;;2.10;0.80;;;;;;;14.33;44.85;99905.50;5076732;28;20458;-77
2022/05/30 12:07:42;;;;;;;2.53;0.90;;;;;;;14.24;44.28;99905.06;5076409;28;20070;-77
2022/05/30 12:10:36;;;;;;;2.83;1.17;;;;;;;14.56;43.42;99897.28;5075366;28;20115;-77
2022/05/30 12:13:44;;;;;;;3.70;1.33;;;;;;;14.71;43.13;99897.56;5090572;28;20052;-77
2022/05/30 12:16:27;;;;;;;2.92;1.00;;;;;;;15.11;42.49;99894.69;5076145;28;20062;-76
2022/05/30 12:25:34;;;;;;;4.30;1.48;;;;;;;16.67;37.96;99897.00;5030525;28;20028;-76
2022/05/30 12:27:59;;;;;;;3.17;1.42;;;;;;;17.05;38.71;99893.25;5030801;28;20419;-76
2022/05/30 12:30:34;;;;;;;3.83;1.33;;;;;;;16.38;37.85;99892.88;5063261;28;20040;-76
2022/05/30 12:33:00;;;;;;;7.90;1.30;;;;;;;16.29;39.33;99896.06;5074499;28;20032;-76
2022/05/30 12:35:28;;;;;;;3.08;1.42;;;;;;;16.27;39.03;99900.13;5074936;28;20115;-76
2022/05/30 12:38:03;;;;;;;4.50;1.55;;;;;;;15.36;39.27;99894.28;5092663;28;20036;-76
2022/05/30 12:40:28;;;;;;;2.88;1.15;;;;;;;15.31;39.80;99901.53;5092402;28;20110;-76
2022/05/30 12:43:16;;;;;;;2.80;1.37;;;;;;;15.01;39.68;99896.44;5092468;28;20131;-75
2022/05/30 12:46:06;;;;;;;5.75;1.58;;;;;;;14.63;42.55;99892.53;5093050;28;20031;-76
2022/05/30 12:48:42;;;;;;;4.40;1.52;;;;;;;14.70;42.79;99897.78;5092032;28;20160;-76
2022/05/30 12:51:19;;;;;;;5.00;1.20;;;;;;;14.56;43.17;99897.28;5092598;28;20026;-76
2022/05/30 12:54:01;;;;;;;3.80;1.20;;;;;;;14.08;43.05;99900.41;5095169;28;20024;-77
2022/05/30 12:56:38;;;;;;;4.15;1.20;;;;;;;14.20;44.12;99899.28;5096308;28;20119;-76